createdAt,value
2018-05-29T00:00:31.041Z,23.83
2018-05-29T00:02:59.317Z,23.88
2018-05-29T00:05:28.384Z,23.81
2018-05-29T00:07:56.668Z,23.81
2018-05-29T00:10:25.099Z,23.81
2018-05-29T00:12:53.355Z,23.77
2018-05-29T00:15:21.677Z,23.76
2018-05-29T00:17:49.992Z,23.67
2018-05-29T00:20:18.385Z,23.71
2018-05-29T00:22:47.433Z,23.64
2018-05-29T00:25:15.717Z,23.63
2018-05-29T00:27:44.081Z,23.57
2018-05-29T00:30:12.474Z,23.56
2018-05-29T00:32:40.727Z,23.56
2018-05-29T00:35:09.775Z,23.51
2018-05-29T00:37:38.162Z,23.47
2018-05-29T00:40:06.450Z,23.44
2018-05-29T00:42:34.729Z,23.41
2018-05-29T00:45:03.843Z,23.37
2018-05-29T00:47:32.132Z,23.29
2018-05-29T00:50:01.241Z,23.25
2018-05-29T00:52:29.525Z,23.16
2018-05-29T00:55:16.310Z,23.08
2018-05-29T00:57:44.666Z,23.01
2018-05-29T01:00:14.733Z,22.97
2018-05-29T01:02:43.182Z,22.93
2018-05-29T01:05:11.478Z,22.88
2018-05-29T01:07:39.753Z,22.81
2018-05-29T01:10:08.887Z,22.79
2018-05-29T01:12:37.217Z,22.94
2018-05-29T01:15:05.463Z,22.83
2018-05-29T01:17:33.741Z,22.78
2018-05-29T01:20:02.039Z,22.73
2018-05-29T01:22:30.427Z,22.65
2018-05-29T01:24:59.536Z,22.62
2018-05-29T01:27:28.633Z,22.68
2018-05-29T01:29:56.901Z,22.67
2018-05-29T01:32:25.226Z,22.80
2018-05-29T01:34:53.501Z,22.80
2018-05-29T01:37:22.553Z,22.81
2018-05-29T01:39:50.900Z,22.76
2018-05-29T01:42:20.130Z,22.70
2018-05-29T01:44:48.407Z,22.65
2018-05-29T01:47:18.427Z,22.66
2018-05-29T01:49:47.485Z,22.62
2018-05-29T01:52:15.833Z,22.59
2018-05-29T01:54:44.899Z,22.65
2018-05-29T01:57:13.193Z,22.54
2018-05-29T01:59:41.482Z,22.54
2018-05-29T02:02:09.770Z,22.50
2018-05-29T02:04:38.179Z,22.47
2018-05-29T02:07:06.372Z,22.46
2018-05-29T02:09:34.663Z,22.50
2018-05-29T02:12:02.942Z,22.42
2018-05-29T02:14:31.499Z,22.41
2018-05-29T02:16:59.785Z,22.36
2018-05-29T02:19:28.124Z,22.33
2018-05-29T02:21:56.465Z,22.28
2018-05-29T02:24:24.745Z,22.25
2018-05-29T02:26:53.028Z,22.21
2018-05-29T02:29:22.147Z,22.19
2018-05-29T02:31:51.263Z,22.20
2018-05-29T02:34:19.519Z,22.15
2018-05-29T02:36:47.817Z,22.12
2018-05-29T02:39:16.130Z,22.09
2018-05-29T02:41:44.473Z,22.05
2018-05-29T02:44:13.630Z,22.02
2018-05-29T02:46:41.922Z,22.00
2018-05-29T02:49:10.945Z,22.00
2018-05-29T02:51:39.425Z,21.94
2018-05-29T02:54:07.828Z,21.90
2018-05-29T02:56:36.085Z,21.84
2018-05-29T02:59:04.343Z,21.81
2018-05-29T03:01:32.691Z,21.80
2018-05-29T03:04:01.803Z,21.75
2018-05-29T03:06:30.064Z,21.70
2018-05-29T03:08:59.152Z,21.71
2018-05-29T03:11:27.482Z,21.67
2018-05-29T03:13:56.588Z,21.71
2018-05-29T03:16:25.717Z,21.68
2018-05-29T03:18:53.968Z,21.67
2018-05-29T03:21:22.291Z,21.70
2018-05-29T03:23:51.362Z,21.65
2018-05-29T03:26:19.897Z,21.61
2018-05-29T03:28:48.931Z,21.59
2018-05-29T03:31:17.297Z,21.61
2018-05-29T03:33:45.692Z,21.56
2018-05-29T03:36:14.748Z,21.57
2018-05-29T03:38:43.069Z,21.57
2018-05-29T03:41:13.658Z,21.54
2018-05-29T03:43:43.031Z,21.55
2018-05-29T03:46:12.071Z,21.53
2018-05-29T03:48:40.347Z,21.58
2018-05-29T03:51:08.651Z,21.53
2018-05-29T03:53:37.024Z,21.54
2018-05-29T03:56:05.318Z,21.58
2018-05-29T03:58:34.429Z,21.60
2018-05-29T04:01:02.773Z,21.63
2018-05-29T04:03:31.112Z,21.64
2018-05-29T04:06:00.269Z,21.70
2018-05-29T04:08:28.615Z,21.75
2018-05-29T04:10:57.666Z,21.74
2018-05-29T04:13:26.018Z,21.78
2018-05-29T04:15:54.351Z,21.83
2018-05-29T04:18:23.414Z,21.88
2018-05-29T04:20:51.664Z,21.96
2018-05-29T04:23:19.997Z,22.06
2018-05-29T04:25:49.117Z,22.24
2018-05-29T04:28:17.602Z,22.48
2018-05-29T04:30:45.897Z,22.68
2018-05-29T04:33:14.198Z,22.79
2018-05-29T04:35:42.585Z,22.88
2018-05-29T04:38:11.073Z,22.94
2018-05-29T04:40:39.325Z,22.94
2018-05-29T04:43:07.603Z,23.02
2018-05-29T04:45:35.939Z,23.11
2018-05-29T04:48:04.976Z,23.13
2018-05-29T04:50:33.344Z,23.16
2018-05-29T04:53:01.632Z,23.14
2018-05-29T04:55:29.905Z,23.28
2018-05-29T04:57:58.942Z,23.39
2018-05-29T05:00:27.219Z,23.50
2018-05-29T05:02:55.538Z,23.63
2018-05-29T05:05:23.783Z,23.76
2018-05-29T05:07:52.927Z,24.03
2018-05-29T05:10:24.462Z,24.19
2018-05-29T05:12:53.648Z,24.10
2018-05-29T05:15:21.976Z,24.05
2018-05-29T05:17:52.058Z,24.01
2018-05-29T05:20:21.472Z,24.18
2018-05-29T05:22:51.803Z,24.34
2018-05-29T05:25:21.508Z,24.55
2018-05-29T05:27:49.880Z,24.92
2018-05-29T05:30:20.079Z,25.26
2018-05-29T05:32:49.483Z,25.36
2018-05-29T05:35:19.681Z,25.71
2018-05-29T05:37:50.108Z,25.93
2018-05-29T05:40:18.429Z,26.21
2018-05-29T05:42:47.510Z,26.52
2018-05-29T05:45:15.920Z,26.43
2018-05-29T05:47:44.217Z,26.65
2018-05-29T05:50:12.483Z,26.80
2018-05-29T05:52:40.917Z,26.34
2018-05-29T05:55:09.171Z,26.69
2018-05-29T05:57:37.439Z,26.41
2018-05-29T06:00:06.467Z,26.83
2018-05-29T06:02:34.750Z,26.62
2018-05-29T06:05:03.042Z,26.83
2018-05-29T06:07:32.155Z,26.50
2018-05-29T06:10:01.334Z,27.16
2018-05-29T06:12:29.601Z,27.10
2018-05-29T06:14:58.663Z,27.31
2018-05-29T06:17:27.757Z,27.56
2018-05-29T06:19:56.797Z,27.68
2018-05-29T06:22:25.088Z,27.67
2018-05-29T06:24:53.362Z,27.91
2018-05-29T06:27:21.651Z,28.28
2018-05-29T06:29:50.713Z,27.94
2018-05-29T06:32:18.996Z,28.27
2018-05-29T06:34:47.275Z,28.56
2018-05-29T06:37:15.599Z,28.77
2018-05-29T06:39:43.855Z,28.89
2018-05-29T06:42:12.163Z,29.00
2018-05-29T06:44:40.432Z,29.23
2018-05-29T06:47:08.710Z,29.47
2018-05-29T06:49:37.001Z,29.78
2018-05-29T06:52:05.376Z,29.10
2018-05-29T06:54:33.653Z,30.08
2018-05-29T06:57:02.744Z,30.20
2018-05-29T06:59:31.885Z,30.64
2018-05-29T07:02:00.937Z,30.32
2018-05-29T07:04:29.281Z,30.72
2018-05-29T07:06:58.314Z,31.09
2018-05-29T07:09:33.511Z,31.50
2018-05-29T07:12:01.837Z,30.62
2018-05-29T07:14:30.151Z,31.57
2018-05-29T07:16:58.450Z,31.81
2018-05-29T07:19:26.730Z,31.63
2018-05-29T07:21:54.991Z,32.08
2018-05-29T07:24:23.258Z,31.89
2018-05-29T07:26:51.644Z,32.70
2018-05-29T07:29:19.901Z,32.51
2018-05-29T07:31:48.259Z,31.78
2018-05-29T07:34:17.373Z,32.19
2018-05-29T07:36:45.765Z,32.01
2018-05-29T07:39:14.098Z,31.46
2018-05-29T07:41:43.143Z,31.68
2018-05-29T07:44:12.186Z,31.29
2018-05-29T07:46:40.455Z,31.98
2018-05-29T07:49:08.744Z,32.28
2018-05-29T07:51:37.033Z,31.86
2018-05-29T07:54:06.083Z,32.31
2018-05-29T07:56:34.380Z,32.72
2018-05-29T07:59:02.733Z,32.16
2018-05-29T08:01:31.029Z,32.03
2018-05-29T08:03:59.296Z,31.85
2018-05-29T08:06:28.368Z,32.17
2018-05-29T08:08:56.618Z,31.21
2018-05-29T08:11:25.681Z,31.90
2018-05-29T08:13:53.937Z,31.96
2018-05-29T08:16:22.234Z,32.08
2018-05-29T08:18:51.563Z,32.40
2018-05-29T08:21:19.901Z,32.67
2018-05-29T08:23:48.950Z,32.42
2018-05-29T08:26:17.310Z,32.97
2018-05-29T08:28:45.594Z,33.17
2018-05-29T08:31:14.696Z,34.44
2018-05-29T08:33:43.762Z,34.59
2018-05-29T08:36:12.118Z,34.90
2018-05-29T08:38:40.394Z,35.13
2018-05-29T08:41:08.673Z,35.24
2018-05-29T08:43:37.702Z,35.47
2018-05-29T08:46:06.013Z,35.29
2018-05-29T08:48:34.279Z,35.55
2018-05-29T08:51:02.566Z,35.16
2018-05-29T08:53:30.843Z,35.54
2018-05-29T08:55:59.131Z,35.45
2018-05-29T08:58:28.152Z,36.12
2018-05-29T09:00:56.471Z,35.87
2018-05-29T09:03:24.838Z,35.83
2018-05-29T09:05:53.877Z,35.25
2018-05-29T09:08:22.134Z,35.47
2018-05-29T09:10:52.095Z,35.51
2018-05-29T09:13:20.371Z,35.38
2018-05-29T09:15:48.627Z,35.51
2018-05-29T09:18:17.706Z,35.16
2018-05-29T09:20:46.151Z,35.26
2018-05-29T09:23:14.396Z,35.82
2018-05-29T09:25:42.726Z,35.82
2018-05-29T09:28:11.777Z,36.04
2018-05-29T09:30:44.116Z,36.30
2018-05-29T09:33:13.863Z,36.19
2018-05-29T09:35:42.155Z,35.89
2018-05-29T09:38:10.443Z,35.30
2018-05-29T09:40:38.709Z,34.94
2018-05-29T09:43:07.757Z,35.01
2018-05-29T09:45:36.053Z,35.09
2018-05-29T09:48:04.308Z,35.54
2018-05-29T09:50:32.580Z,35.32
2018-05-29T09:53:01.620Z,35.31
2018-05-29T09:55:29.911Z,35.28
2018-05-29T09:57:58.187Z,35.11
2018-05-29T10:00:32.627Z,35.15
2018-05-29T10:03:01.666Z,35.45
2018-05-29T10:05:29.935Z,36.06
2018-05-29T10:07:58.250Z,36.72
2018-05-29T10:10:26.522Z,37.14
2018-05-29T10:12:54.787Z,37.48
2018-05-29T10:15:23.823Z,37.59
2018-05-29T10:17:52.085Z,37.58
2018-05-29T10:20:21.141Z,37.35
2018-05-29T10:22:49.419Z,37.30
2018-05-29T10:25:17.703Z,37.67
2018-05-29T10:27:45.967Z,37.95
2018-05-29T10:30:14.278Z,38.02
2018-05-29T10:32:42.579Z,37.89
2018-05-29T10:35:10.850Z,37.78
2018-05-29T10:37:39.149Z,37.57
2018-05-29T10:40:07.426Z,37.70
2018-05-29T10:42:35.740Z,37.89
2018-05-29T10:45:07.039Z,37.80
2018-05-29T10:47:35.316Z,37.88
2018-05-29T10:50:03.594Z,37.16
2018-05-29T10:52:31.967Z,36.58
2018-05-29T10:55:00.263Z,36.27
2018-05-29T10:57:28.519Z,36.72
2018-05-29T10:59:57.589Z,36.46
2018-05-29T11:02:25.868Z,36.45
2018-05-29T11:04:54.139Z,36.72
2018-05-29T11:07:22.432Z,36.86
2018-05-29T11:09:50.701Z,36.72
2018-05-29T11:12:18.981Z,36.43
2018-05-29T11:14:48.042Z,36.44
2018-05-29T11:17:16.379Z,35.91
2018-05-29T11:19:45.473Z,35.44
2018-05-29T11:22:13.801Z,35.37
2018-05-29T11:24:42.063Z,35.74
2018-05-29T11:27:11.099Z,35.98
2018-05-29T11:29:40.499Z,36.41
2018-05-29T11:32:08.772Z,36.87
2018-05-29T11:34:37.822Z,36.84
2018-05-29T11:37:06.204Z,36.53
2018-05-29T11:39:34.473Z,35.14
2018-05-29T11:42:03.509Z,35.00
2018-05-29T11:44:31.825Z,34.78
2018-05-29T11:47:00.107Z,34.96
2018-05-29T11:49:28.389Z,34.86
2018-05-29T11:51:56.663Z,34.62
2018-05-29T11:54:24.919Z,34.47
2018-05-29T11:56:53.196Z,33.43
2018-05-29T11:59:21.537Z,34.04
2018-05-29T12:01:49.879Z,34.71
2018-05-29T12:04:18.111Z,34.90
2018-05-29T12:06:47.178Z,35.87
2018-05-29T12:09:15.443Z,36.26
2018-05-29T12:11:43.743Z,36.61
2018-05-29T12:14:12.049Z,37.31
2018-05-29T12:16:40.389Z,37.24
2018-05-29T12:19:09.426Z,37.36
2018-05-29T12:21:37.709Z,37.18
2018-05-29T12:24:05.975Z,37.20
2018-05-29T12:26:34.266Z,36.96
2018-05-29T12:29:03.322Z,36.79
2018-05-29T12:31:31.589Z,36.91
2018-05-29T12:33:59.881Z,37.00
2018-05-29T12:36:28.210Z,37.15
2018-05-29T12:38:56.476Z,37.12
2018-05-29T12:41:25.525Z,37.40
2018-05-29T12:43:54.656Z,36.75
2018-05-29T12:46:23.677Z,36.29
2018-05-29T12:48:51.954Z,36.44
2018-05-29T12:51:20.227Z,35.89
2018-05-29T12:53:49.351Z,35.98
2018-05-29T12:56:17.617Z,35.46
2018-05-29T12:58:46.686Z,35.32
2018-05-29T13:01:14.964Z,35.28
2018-05-29T13:03:43.232Z,35.11
2018-05-29T13:06:11.516Z,34.94
2018-05-29T13:08:40.533Z,34.79
2018-05-29T13:11:08.805Z,34.43
2018-05-29T13:13:37.848Z,34.45
2018-05-29T13:16:06.145Z,34.18
2018-05-29T13:18:34.510Z,34.24
2018-05-29T13:21:02.784Z,34.20
2018-05-29T13:23:31.818Z,33.88
2018-05-29T13:26:00.108Z,33.49
2018-05-29T13:28:29.389Z,33.47
2018-05-29T13:30:57.701Z,33.28
2018-05-29T13:33:25.991Z,33.12
2018-05-29T13:35:55.051Z,32.99
2018-05-29T13:38:23.314Z,32.82
2018-05-29T13:40:51.597Z,32.95
2018-05-29T13:43:19.975Z,32.91
2018-05-29T13:45:48.241Z,32.58
2018-05-29T13:48:17.378Z,32.56
2018-05-29T13:50:45.703Z,32.47
2018-05-29T13:53:13.973Z,32.62
2018-05-29T13:55:42.348Z,32.32
2018-05-29T13:58:10.637Z,32.27
2018-05-29T14:00:38.915Z,32.00
2018-05-29T14:03:07.954Z,32.03
2018-05-29T14:05:36.249Z,31.81
2018-05-29T14:08:04.590Z,31.65
2018-05-29T14:10:33.611Z,31.67
2018-05-29T14:13:02.661Z,31.52
2018-05-29T14:15:30.940Z,31.57
2018-05-29T14:17:59.205Z,31.36
2018-05-29T14:20:28.247Z,30.98
2018-05-29T14:22:56.573Z,29.94
2018-05-29T14:25:24.855Z,29.13
2018-05-29T14:27:53.132Z,28.76
2018-05-29T14:30:21.483Z,28.68
2018-05-29T14:32:50.504Z,28.61
2018-05-29T14:35:18.782Z,28.31
2018-05-29T14:37:47.082Z,28.07
2018-05-29T14:40:15.377Z,28.01
2018-05-29T14:42:43.669Z,27.87
2018-05-29T14:45:11.947Z,27.61
2018-05-29T14:47:40.232Z,27.46
2018-05-29T14:50:08.522Z,27.15
2018-05-29T14:52:36.813Z,26.77
2018-05-29T14:55:05.835Z,26.65
2018-05-29T14:57:34.113Z,26.03
2018-05-29T15:00:02.406Z,25.52
2018-05-29T15:02:30.672Z,25.37
2018-05-29T15:04:58.959Z,25.12
2018-05-29T15:07:27.197Z,24.68
2018-05-29T15:09:55.518Z,24.88
2018-05-29T15:12:23.792Z,25.01
2018-05-29T15:14:52.047Z,25.01
2018-05-29T15:17:20.328Z,25.03
2018-05-29T15:19:48.614Z,24.87
2018-05-29T15:22:17.647Z,24.13
2018-05-29T15:24:46.016Z,23.13
2018-05-29T15:27:14.317Z,22.08
2018-05-29T15:29:42.820Z,21.75
2018-05-29T15:32:11.092Z,21.32
2018-05-29T15:34:41.136Z,21.06
2018-05-29T15:37:09.936Z,21.03
2018-05-29T15:39:40.958Z,20.60
2018-05-29T15:42:10.879Z,20.17
2018-05-29T15:44:39.147Z,20.05
2018-05-29T15:47:07.415Z,20.22
2018-05-29T15:49:38.033Z,20.26
2018-05-29T15:52:07.358Z,19.83
2018-05-29T15:54:36.494Z,19.57
2018-05-29T15:57:04.761Z,19.57
2018-05-29T15:59:33.783Z,19.41
2018-05-29T16:02:02.086Z,19.46
2018-05-29T16:04:30.469Z,19.42
2018-05-29T16:06:59.583Z,19.18
2018-05-29T16:09:27.898Z,19.22
2018-05-29T16:11:56.169Z,19.42
2018-05-29T16:14:24.457Z,19.44
2018-05-29T16:16:52.719Z,19.58
2018-05-29T16:19:21.895Z,19.56
2018-05-29T16:21:50.736Z,19.48
2018-05-29T16:24:19.052Z,19.34
2018-05-29T16:26:47.352Z,19.27
2018-05-29T16:29:15.635Z,19.20
2018-05-29T16:31:43.944Z,19.21
2018-05-29T16:34:12.258Z,19.26
2018-05-29T16:36:40.561Z,19.31
2018-05-29T16:39:08.853Z,19.31
2018-05-29T16:41:37.116Z,19.38
2018-05-29T16:44:05.471Z,19.58
2018-05-29T16:46:33.763Z,19.82
2018-05-29T16:49:02.075Z,19.94
2018-05-29T16:51:30.343Z,19.97
2018-05-29T16:53:59.557Z,20.05
2018-05-29T16:56:27.836Z,20.07
2018-05-29T16:58:57.057Z,20.12
2018-05-29T17:01:25.459Z,20.22
2018-05-29T17:03:53.733Z,20.35
2018-05-29T17:06:22.791Z,20.42
2018-05-29T17:08:51.087Z,20.52
2018-05-29T17:11:19.368Z,20.48
2018-05-29T17:13:47.617Z,20.51
2018-05-29T17:16:15.931Z,20.54
2018-05-29T17:18:44.233Z,20.61
2018-05-29T17:21:13.015Z,20.66
2018-05-29T17:23:41.301Z,20.76
2018-05-29T17:26:09.586Z,20.79
2018-05-29T17:28:37.869Z,20.84
2018-05-29T17:31:06.980Z,20.85
2018-05-29T17:33:35.247Z,20.98
2018-05-29T17:36:04.283Z,21.01
2018-05-29T17:38:32.594Z,21.04
2018-05-29T17:41:00.865Z,21.09
2018-05-29T17:43:29.137Z,21.13
2018-05-29T17:45:58.218Z,21.26
2018-05-29T17:48:26.762Z,21.25
2018-05-29T17:50:55.163Z,21.32
2018-05-29T17:53:23.460Z,21.43
2018-05-29T17:55:51.795Z,21.49
2018-05-29T17:58:20.070Z,21.52
2018-05-29T18:00:49.122Z,21.58
2018-05-29T18:03:18.169Z,21.76
2018-05-29T18:05:46.439Z,21.69
2018-05-29T18:08:16.066Z,21.67
2018-05-29T18:10:44.556Z,21.82
2018-05-29T18:13:12.954Z,21.70
2018-05-29T18:15:41.261Z,21.65
2018-05-29T18:18:10.645Z,21.66
2018-05-29T18:20:39.672Z,21.59
2018-05-29T18:23:07.947Z,21.64
2018-05-29T18:25:36.220Z,21.61
2018-05-29T18:28:05.253Z,21.57
2018-05-29T18:30:33.564Z,21.55
2018-05-29T18:33:02.240Z,21.54
2018-05-29T18:35:30.523Z,21.70
2018-05-29T18:37:58.805Z,21.58
2018-05-29T18:40:27.103Z,21.59
2018-05-29T18:42:55.365Z,21.51
2018-05-29T18:45:24.509Z,21.58
2018-05-29T18:47:53.828Z,21.50
2018-05-29T18:50:22.101Z,21.47
2018-05-29T18:52:50.426Z,21.45
2018-05-29T18:55:18.709Z,21.50
2018-05-29T18:57:47.189Z,21.47
2018-05-29T19:00:16.403Z,21.51
2018-05-29T19:02:44.690Z,21.52
2018-05-29T19:05:12.965Z,21.50
2018-05-29T19:07:42.025Z,21.43
2018-05-29T19:10:11.261Z,21.42
2018-05-29T19:12:39.532Z,21.37
2018-05-29T19:15:09.572Z,21.38
2018-05-29T19:17:37.942Z,21.40
2018-05-29T19:20:06.246Z,21.41
2018-05-29T19:22:35.287Z,21.43
2018-05-29T19:25:04.334Z,21.42
2018-05-29T19:27:32.618Z,21.46
2018-05-29T19:30:01.035Z,21.44
2018-05-29T19:32:29.302Z,21.39
2018-05-29T19:34:58.589Z,21.37
2018-05-29T19:37:27.716Z,21.35
2018-05-29T19:39:56.754Z,21.41
2018-05-29T19:42:25.772Z,21.39
2018-05-29T19:44:57.416Z,21.34
2018-05-29T19:47:25.753Z,21.38
2018-05-29T19:49:56.585Z,21.35
2018-05-29T19:52:25.434Z,21.29
2018-05-29T19:54:54.072Z,21.29
2018-05-29T19:57:23.550Z,21.23
2018-05-29T19:59:52.030Z,21.21
2018-05-29T20:02:22.357Z,21.32
2018-05-29T20:04:50.829Z,21.30
2018-05-29T20:07:19.654Z,21.23
2018-05-29T20:09:47.987Z,21.34
2018-05-29T20:12:16.407Z,21.29
2018-05-29T20:14:44.680Z,21.25
2018-05-29T20:17:13.162Z,21.32
2018-05-29T20:19:41.449Z,21.27
2018-05-29T20:22:11.462Z,21.21
2018-05-29T20:24:41.031Z,21.17
2018-05-29T20:27:09.602Z,21.19
2018-05-29T20:29:39.198Z,21.12
2018-05-29T20:32:07.748Z,21.10
2018-05-29T20:34:36.318Z,21.10
2018-05-29T20:37:05.156Z,21.01
2018-05-29T20:39:33.570Z,20.97
2018-05-29T20:42:02.437Z,20.96
2018-05-29T20:44:30.963Z,20.92
2018-05-29T20:46:59.608Z,20.88
2018-05-29T20:49:28.241Z,20.88
2018-05-29T20:51:56.670Z,20.87
2018-05-29T20:54:25.671Z,20.87
2018-05-29T20:56:54.480Z,20.86
2018-05-29T20:59:23.675Z,20.79
2018-05-29T21:01:52.109Z,20.77
2018-05-29T21:04:21.436Z,20.68
2018-05-29T21:06:49.935Z,20.68
2018-05-29T21:09:18.879Z,20.73
2018-05-29T21:11:47.645Z,20.67
2018-05-29T21:14:18.324Z,20.71
2018-05-29T21:16:47.556Z,20.77
2018-05-29T21:19:16.482Z,20.76
2018-05-29T21:21:44.872Z,20.72
2018-05-29T21:24:13.925Z,20.74
2018-05-29T21:26:42.176Z,20.71
2018-05-29T21:29:11.394Z,20.71
2018-05-29T21:31:40.452Z,20.73
2018-05-29T21:34:08.696Z,20.68
2018-05-29T21:36:36.977Z,20.65
2018-05-29T21:39:06.033Z,20.64
2018-05-29T21:41:36.230Z,20.60
2018-05-29T21:44:05.289Z,20.62
2018-05-29T21:46:33.574Z,20.58
2018-05-29T21:49:01.850Z,20.58
2018-05-29T21:51:30.105Z,20.59
2018-05-29T21:54:00.370Z,20.62
2018-05-29T21:56:28.619Z,20.70
2018-05-29T21:58:57.747Z,20.74
2018-05-29T22:01:26.104Z,20.68
2018-05-29T22:04:08.903Z,20.64
2018-05-29T22:06:37.265Z,20.61
2018-05-29T22:09:06.375Z,20.57
2018-05-29T22:11:34.691Z,20.56
2018-05-29T22:14:03.058Z,20.58
2018-05-29T22:16:32.072Z,20.53
2018-05-29T22:19:00.503Z,20.55
2018-05-29T22:21:28.748Z,20.51
2018-05-29T22:23:57.029Z,20.47
2018-05-29T22:26:26.360Z,20.45
2018-05-29T22:28:54.624Z,20.42
2018-05-29T22:31:23.652Z,20.37
2018-05-29T22:33:52.761Z,20.32
2018-05-29T22:36:21.790Z,20.31
2018-05-29T22:38:50.062Z,20.31
2018-05-29T22:41:18.354Z,20.24
2018-05-29T22:43:46.612Z,20.22
2018-05-29T22:46:14.868Z,20.28
2018-05-29T22:48:43.147Z,20.25
2018-05-29T22:51:11.496Z,20.28
2018-05-29T22:53:40.588Z,20.32
2018-05-29T22:56:08.904Z,20.32
2018-05-29T22:58:38.121Z,20.39
2018-05-29T23:01:07.336Z,20.42
2018-05-29T23:03:35.607Z,20.48
2018-05-29T23:06:04.624Z,20.50
2018-05-29T23:08:32.879Z,20.52
2018-05-29T23:11:01.174Z,20.52
2018-05-29T23:13:29.420Z,20.60
2018-05-29T23:15:57.800Z,20.65
2018-05-29T23:18:26.145Z,20.69
2018-05-29T23:20:54.368Z,20.68
2018-05-29T23:23:23.375Z,20.64
2018-05-29T23:25:52.501Z,20.67
2018-05-29T23:28:20.774Z,20.64
2018-05-29T23:30:49.832Z,20.73
2018-05-29T23:33:18.079Z,20.71
2018-05-29T23:35:47.093Z,20.65
2018-05-29T23:38:15.450Z,20.69
2018-05-29T23:40:43.782Z,20.67
2018-05-29T23:43:12.053Z,20.61
2018-05-29T23:45:41.096Z,20.71
2018-05-29T23:48:09.369Z,20.70
2018-05-29T23:50:37.651Z,20.67
2018-05-29T23:53:05.930Z,20.57
2018-05-29T23:55:35.045Z,20.57
2018-05-29T23:58:04.061Z,20.52
